Time;durP1;ratioP1;P1;durP2;ratioP2;P2;SDS_P1;SDS_P2;PMS_P1;PMS_P2;Temp;Humidity;BMP_temperature;BMP_pressure;BME280_temperature;BME280_humidity;BME280_pressure;Samples;Min_cycle;Max_cycle;Signal;HPM_P1;HPM_P2
2024/03/12 00:03:28;;;;;;;30.60;18.30;;;;;;;7.71;93.73;99986.02;682156;1261;138918;-79
2024/03/12 00:18:32;;;;;;;32.90;17.80;;;;;;;7.73;93.92;99985.14;682090;1263;138751;-79
2024/03/12 00:33:36;;;;;;;31.70;17.90;;;;;;;7.69;94.93;99979.39;682192;1260;139689;-78
2024/03/12 00:48:40;;;;;;;26.90;15.10;;;;;;;7.68;95.60;99977.36;682270;1263;138738;-79
2024/03/12 01:03:46;;;;;;;38.20;19.50;;;;;;;7.69;95.12;99979.54;682073;1262;140093;-78
2024/03/12 01:18:50;;;;;;;26.70;14.30;;;;;;;7.72;94.98;99977.02;682252;1260;140152;-79
2024/03/12 01:33:54;;;;;;;34.60;18.20;;;;;;;7.71;95.03;99972.21;682126;1262;139988;-79
2024/03/12 01:49:00;;;;;;;28.70;15.70;;;;;;;7.70;95.30;99971.30;682251;1263;138505;-78
2024/03/12 02:04:04;;;;;;;27.30;16.20;;;;;;;7.73;95.28;99975.17;682130;1259;140259;-80
2024/03/12 02:19:08;;;;;;;25.20;15.90;;;;;;;7.73;95.26;99976.10;682139;1264;139365;-78
2024/03/12 02:34:12;;;;;;;29.90;16.90;;;;;;;7.70;95.15;99971.13;682039;1265;138998;-78
2024/03/12 02:49:17;;;;;;;33.90;18.30;;;;;;;7.69;95.48;99968.39;682217;1261;139239;-79
2024/03/12 03:04:21;;;;;;;32.30;16.30;;;;;;;7.59;96.01;99966.56;682090;1263;139639;-78
2024/03/12 03:19:25;;;;;;;25.70;15.10;;;;;;;7.57;96.07;99959.98;682274;1262;138620;-78
2024/03/12 03:34:29;;;;;;;26.00;15.30;;;;;;;7.57;96.17;99954.92;682155;1265;139775;-78
2024/03/12 03:49:32;;;;;;;34.60;22.20;;;;;;;7.56;96.31;99963.90;682047;1264;138900;-78
2024/03/12 04:04:36;;;;;;;68.60;29.90;;;;;;;7.56;96.61;99959.33;681784;1263;139190;-79
2024/03/12 04:19:40;;;;;;;36.00;20.80;;;;;;;7.59;96.63;99959.06;681667;1264;140077;-79
2024/03/12 04:34:44;;;;;;;36.30;19.90;;;;;;;7.57;96.86;99960.67;681532;1271;139756;-79
2024/03/12 04:49:48;;;;;;;32.70;16.70;;;;;;;7.56;97.09;99964.36;681670;1264;138897;-79
2024/03/12 05:04:51;;;;;;;30.70;14.90;;;;;;;7.64;96.93;99972.56;681801;1265;139080;-79
2024/03/12 05:19:56;;;;;;;27.40;15.30;;;;;;;7.63;97.01;99985.36;681874;1264;140356;-79
2024/03/12 05:34:59;;;;;;;30.50;17.60;;;;;;;7.57;97.22;99988.48;681899;1269;139772;-78
2024/03/12 05:50:03;;;;;;;56.20;26.90;;;;;;;7.57;97.13;99987.27;682110;1262;138577;-78
2024/03/12 06:05:07;;;;;;;34.30;18.00;;;;;;;7.58;97.26;99997.31;681940;1267;139949;-79
2024/03/12 06:20:12;;;;;;;37.10;19.30;;;;;;;7.71;97.06;99997.65;681923;1265;140057;-78
2024/03/12 06:35:18;;;;;;;282.50;119.30;;;;;;;7.82;96.98;100009.67;681988;1264;138634;-80
2024/03/12 06:50:25;;;;;;;71.40;34.40;;;;;;;7.82;96.47;100018.35;681827;1267;139091;-79
2024/03/12 07:05:30;;;;;;;42.20;20.30;;;;;;;7.64;95.95;100032.50;681784;1264;139971;-79
2024/03/12 07:20:34;;;;;;;66.30;27.90;;;;;;;7.46;94.97;100037.58;681961;1264;138599;-78
2024/03/12 07:35:38;;;;;;;31.50;17.90;;;;;;;7.30;94.44;100042.70;682084;1264;141460;-79
2024/03/12 07:50:43;;;;;;;29.40;14.00;;;;;;;7.09;93.65;100041.49;682020;1265;140523;-78
2024/03/12 08:05:48;;;;;;;42.40;18.40;;;;;;;6.95;93.22;100041.70;681988;1265;138854;-78
2024/03/12 08:20:52;;;;;;;42.30;19.80;;;;;;;6.88;92.66;100047.95;681569;1264;220388;-78
2024/03/12 08:35:56;;;;;;;197.20;87.10;;;;;;;6.75;92.60;100056.37;682132;1264;139911;-78
2024/03/12 08:51:03;;;;;;;82.00;33.40;;;;;;;6.80;93.09;100070.10;681868;1263;140340;-78
2024/03/12 09:06:11;;;;;;;154.10;44.00;;;;;;;6.74;93.05;100082.00;681729;1264;138769;-79
2024/03/12 09:21:21;;;;;;;261.80;107.00;;;;;;;6.76;93.70;100088.65;681833;1265;139672;-78
2024/03/12 09:36:25;;;;;;;321.50;98.80;;;;;;;6.88;94.16;100087.80;681887;1265;139686;-78
2024/03/12 09:51:31;;;;;;;493.50;208.70;;;;;;;6.75;94.50;100095.17;681686;1264;139551;-78
2024/03/12 10:06:35;;;;;;;185.00;71.80;;;;;;;6.85;95.17;100100.46;681978;1264;139166;-78
2024/03/12 10:21:40;;;;;;;61.70;23.80;;;;;;;6.88;95.35;100108.98;681785;1265;139294;-78
2024/03/12 10:36:45;;;;;;;65.70;27.10;;;;;;;6.96;95.27;100112.37;681972;1264;141006;-79
2024/03/12 10:51:49;;;;;;;55.00;23.50;;;;;;;7.22;95.94;100114.59;681859;1264;139975;-79
2024/03/12 11:06:54;;;;;;;66.40;25.70;;;;;;;7.46;96.15;100111.02;681747;1265;139817;-78
2024/03/12 11:22:11;;;;;;;114.90;37.70;;;;;;;7.57;95.99;100112.27;682168;1266;139648;-80
2024/03/12 11:37:19;;;;;;;45.40;21.20;;;;;;;7.59;96.33;100110.89;682127;1263;139572;-80
2024/03/12 11:52:23;;;;;;;57.20;27.10;;;;;;;7.67;96.29;100114.63;682004;1260;140707;-78
2024/03/12 12:07:27;;;;;;;151.80;58.10;;;;;;;7.77;96.30;100116.58;682245;1260;139070;-79
2024/03/12 12:22:34;;;;;;;92.00;37.90;;;;;;;7.80;96.50;100119.48;682073;1266;139027;-80
2024/03/12 12:37:40;;;;;;;79.40;35.40;;;;;;;7.81;96.98;100117.17;682234;1261;138691;-80
2024/03/12 12:52:43;;;;;;;73.10;30.20;;;;;;;7.81;97.51;100120.09;682051;1264;139331;-81
2024/03/12 13:07:47;;;;;;;68.40;32.00;;;;;;;7.80;97.19;100128.52;682155;1266;139662;-81
2024/03/12 13:22:50;;;;;;;459.60;234.70;;;;;;;8.10;97.81;100127.80;682008;1265;138675;-81
2024/03/12 13:37:54;;;;;;;138.10;51.20;;;;;;;8.00;97.62;100132.23;682102;1273;140503;-80
2024/03/12 13:52:57;;;;;;;410.30;153.10;;;;;;;7.99;97.49;100137.12;682066;1263;138843;-80
2024/03/12 14:08:01;;;;;;;145.20;55.90;;;;;;;8.08;97.51;100142.51;682199;1261;139118;-81
2024/03/12 14:23:05;;;;;;;144.10;56.00;;;;;;;8.07;97.52;100144.52;681978;1265;140018;-80
2024/03/12 14:38:08;;;;;;;248.60;83.00;;;;;;;8.00;97.70;100145.95;682194;1265;140269;-80
2024/03/12 14:53:12;;;;;;;628.60;238.60;;;;;;;7.94;98.33;100141.51;682091;1273;139013;-81
2024/03/12 15:08:16;;;;;;;551.10;225.80;;;;;;;8.06;98.66;100140.73;682139;1261;141106;-80
2024/03/12 15:23:21;;;;;;;207.10;77.80;;;;;;;8.12;98.83;100146.38;682112;1260;139359;-80
2024/03/12 15:38:25;;;;;;;336.10;105.80;;;;;;;8.09;98.95;100150.84;681931;1263;139777;-79
2024/03/12 15:53:29;;;;;;;234.00;81.50;;;;;;;8.13;99.02;100152.41;681917;1261;139360;-78
2024/03/12 16:08:33;;;;;;;123.80;46.40;;;;;;;8.00;98.89;100152.09;682047;1265;138886;-79
2024/03/12 16:23:38;;;;;;;240.20;78.90;;;;;;;8.06;99.36;100158.04;681725;1261;139641;-79
2024/03/12 16:38:42;;;;;;;348.50;116.20;;;;;;;7.96;98.88;100159.31;682039;1265;138894;-78
2024/03/12 16:53:46;;;;;;;375.00;125.50;;;;;;;7.87;98.95;100169.80;682111;1261;139888;-78
2024/03/12 17:08:53;;;;;;;110.60;45.10;;;;;;;7.77;99.03;100178.06;681843;1264;139144;-79
2024/03/12 17:23:58;;;;;;;185.60;62.90;;;;;;;7.75;99.29;100182.86;681999;1261;139422;-78
2024/03/12 17:39:09;;;;;;;106.20;45.70;;;;;;;7.84;99.51;100192.85;681986;1261;140339;-79
2024/03/12 17:54:14;;;;;;;191.10;65.00;;;;;;;7.91;99.76;100199.77;682195;1260;139252;-78
2024/03/12 18:09:31;;;;;;;140.10;57.80;;;;;;;7.90;99.71;100208.71;682197;1265;139567;-79
2024/03/12 18:24:40;;;;;;;121.70;52.30;;;;;;;7.93;99.41;100209.89;682119;1260;139405;-78
2024/03/12 18:39:44;;;;;;;344.90;109.50;;;;;;;7.72;99.07;100214.13;681718;1264;139799;-79
2024/03/12 18:54:49;;;;;;;248.20;88.40;;;;;;;7.66;99.61;100226.45;681806;1261;141181;-78
2024/03/12 19:09:53;;;;;;;356.10;108.70;;;;;;;7.70;99.76;100224.05;681916;1262;139534;-78
2024/03/12 19:24:57;;;;;;;554.60;193.40;;;;;;;7.71;99.98;100235.83;681839;1264;139247;-78
2024/03/12 19:40:05;;;;;;;163.30;58.90;;;;;;;7.83;99.61;100242.34;681872;1262;140055;-78
2024/03/12 19:55:18;;;;;;;101.70;41.50;;;;;;;7.85;99.38;100240.98;681877;1265;139134;-78
2024/03/12 20:10:25;;;;;;;280.90;89.40;;;;;;;7.80;99.52;100249.00;681534;1265;174009;-79
2024/03/12 20:25:31;;;;;;;153.30;56.10;;;;;;;7.77;99.96;100251.50;682058;1262;139138;-78
2024/03/12 20:40:35;;;;;;;128.30;48.80;;;;;;;7.77;99.96;100251.17;681793;1265;140212;-79
2024/03/12 20:55:39;;;;;;;134.60;54.80;;;;;;;7.78;99.88;100250.55;681716;1267;139087;-79
2024/03/12 21:10:46;;;;;;;163.30;60.60;;;;;;;7.67;99.93;100248.30;681966;1263;140455;-79
2024/03/12 21:25:49;;;;;;;113.10;42.40;;;;;;;7.66;99.85;100247.99;682035;1265;138997;-79
2024/03/12 21:40:53;;;;;;;82.10;34.30;;;;;;;7.67;100.00;100250.90;681774;1262;140446;-78
2024/03/12 21:55:56;;;;;;;85.30;41.10;;;;;;;7.73;99.96;100249.07;681855;1264;139482;-79
2024/03/12 22:11:00;;;;;;;91.10;42.10;;;;;;;7.76;99.88;100260.84;681911;1264;138819;-79
2024/03/12 22:26:06;;;;;;;73.80;33.30;;;;;;;7.73;99.84;100265.77;681991;1265;139658;-79
2024/03/12 22:41:10;;;;;;;51.50;25.70;;;;;;;7.72;99.86;100276.30;681784;1262;138858;-79
2024/03/12 22:56:17;;;;;;;59.10;26.80;;;;;;;7.62;99.72;100286.21;681522;1266;138950;-80
2024/03/12 23:11:22;;;;;;;59.90;26.40;;;;;;;7.61;99.86;100290.72;681648;1264;138932;-78
2024/03/12 23:26:28;;;;;;;51.20;24.20;;;;;;;7.67;99.91;100288.30;681823;1265;139018;-79
2024/03/12 23:41:32;;;;;;;53.90;25.90;;;;;;;7.64;99.87;100289.39;681765;1264;139205;-77
2024/03/12 23:56:38;;;;;;;60.50;26.00;;;;;;;7.65;100.00;100298.70;681992;1260;140042;-78
